Time;durP1;ratioP1;P1;durP2;ratioP2;P2;SDS_P1;SDS_P2;PMS_P1;PMS_P2;Temp;Humidity;BMP_temperature;BMP_pressure;BME280_temperature;BME280_humidity;BME280_pressure;Samples;Min_cycle;Max_cycle;Signal;HPM_P1;HPM_P2
2022/01/25 00:25:58;;;;;;;30.85;2.67;;;;;;;23.03;52.26;101017.34;7313949;19;129259;-41
2022/01/25 00:28:39;;;;;;;21.35;2.22;;;;;;;23.02;52.41;101015.66;7316209;19;130913;-39
2022/01/25 00:31:16;;;;;;;27.63;2.75;;;;;;;23.09;52.98;101006.38;7316155;19;129021;-38
2022/01/25 00:33:53;;;;;;;19.63;2.13;;;;;;;23.05;52.85;101010.19;7315294;19;129693;-39
2022/01/25 00:36:21;;;;;;;27.13;2.78;;;;;;;23.02;52.52;101011.25;7315249;19;129837;-39
2022/01/25 00:38:47;;;;;;;29.73;2.92;;;;;;;23.01;52.51;101016.59;7317161;19;130734;-38
2022/01/25 00:41:13;;;;;;;30.73;3.28;;;;;;;23.04;52.20;101008.50;7315648;19;130113;-39
2022/01/25 00:43:38;;;;;;;24.47;2.27;;;;;;;23.04;53.14;101005.88;7317402;19;129022;-39
2022/01/25 00:46:08;;;;;;;23.00;2.47;;;;;;;23.06;53.05;101014.47;7314816;19;129254;-39
2022/01/25 00:56:49;;;;;;;37.55;3.50;;;;;;;23.06;52.50;101001.34;7312395;19;129471;-40
2022/01/25 00:59:23;;;;;;;21.63;2.42;;;;;;;23.05;53.05;101010.19;7316237;19;130318;-40
2022/01/25 01:01:52;;;;;;;28.13;2.83;;;;;;;23.06;52.87;101009.22;7315267;19;129377;-39
2022/01/25 01:04:18;;;;;;;28.58;2.92;;;;;;;23.06;52.53;101017.09;7315923;19;129089;-38
2022/01/25 01:06:45;;;;;;;37.10;3.78;;;;;;;22.93;52.49;100995.38;7313370;19;130291;-37
2022/01/25 01:09:12;;;;;;;11.88;1.73;;;;;;;23.05;52.79;101010.19;7315024;19;130347;-39
2022/01/25 01:11:46;;;;;;;26.30;2.70;;;;;;;23.03;52.46;101001.59;7314291;19;129267;-40
2022/01/25 01:41:42;;;;;;;21.30;2.15;;;;;;;22.43;53.86;100959.72;7314594;19;128944;-39
2022/01/25 01:44:10;;;;;;;14.43;1.90;;;;;;;22.52;54.16;100976.56;7313919;19;129382;-39
2022/01/25 01:46:44;;;;;;;27.52;2.75;;;;;;;22.56;54.32;100972.81;7313072;19;129395;-38
2022/01/25 01:49:11;;;;;;;19.77;2.05;;;;;;;22.53;53.69;100975.66;7314169;19;130290;-39
2022/01/25 01:51:42;;;;;;;26.52;2.45;;;;;;;22.43;54.14;100954.50;7314181;19;130234;-40
2022/01/25 01:54:10;;;;;;;32.50;3.17;;;;;;;22.51;54.48;100972.28;7313606;19;129822;-40
2022/01/25 01:56:37;;;;;;;27.55;2.70;;;;;;;22.41;55.01;100958.19;7312193;19;128963;-38
2022/01/25 01:59:06;;;;;;;20.65;2.08;;;;;;;22.49;55.19;100958.47;7311151;19;132354;-40
2022/01/25 02:01:32;;;;;;;26.45;2.55;;;;;;;22.47;55.05;100957.72;7310375;19;130201;-38
2022/01/25 02:03:59;;;;;;;21.00;2.17;;;;;;;22.45;55.10;100954.38;7313968;19;129974;-39
2022/01/25 02:06:25;;;;;;;21.08;2.20;;;;;;;22.45;55.06;100951.75;7311276;19;129542;-39
2022/01/25 02:08:50;;;;;;;34.33;3.42;;;;;;;22.46;55.04;100953.44;7312853;19;130185;-39
2022/01/25 02:11:16;;;;;;;25.55;2.50;;;;;;;22.46;55.39;100951.63;7311850;19;158489;-38
2022/01/25 02:13:42;;;;;;;29.17;2.73;;;;;;;22.46;54.70;100948.22;7310767;19;129012;-39
2022/01/25 02:16:16;;;;;;;22.88;2.17;;;;;;;22.46;55.95;100950.81;7311714;19;129095;-40
2022/01/25 02:24:10;;;;;;;23.27;2.55;;;;;;;22.47;55.17;100944.63;7314059;19;129046;-40
2022/01/25 02:26:35;;;;;;;40.55;3.80;;;;;;;22.51;55.32;100946.09;7309182;19;146791;-40
2022/01/25 02:29:00;;;;;;;19.75;2.13;;;;;;;22.36;54.25;100932.28;7312082;19;158574;-39
2022/01/25 02:31:25;;;;;;;22.02;2.05;;;;;;;22.43;53.93;100944.00;7313225;19;129003;-39
2022/01/25 02:33:51;;;;;;;30.40;3.13;;;;;;;22.36;54.75;100939.34;7309991;19;128958;-40
2022/01/25 02:36:27;;;;;;;22.98;2.25;;;;;;;22.40;56.49;100932.91;7309916;19;129046;-39
2022/01/25 02:38:56;;;;;;;19.38;1.98;;;;;;;22.41;54.85;100930.19;7313401;19;130238;-38
2022/01/25 02:41:23;;;;;;;18.80;2.08;;;;;;;22.39;54.67;100926.00;7311384;19;129377;-38
2022/01/25 02:43:48;;;;;;;;;;;;;;;22.45;56.84;100936.03;7312561;19;129029;-38
2022/01/25 02:48:52;;;;;;;20.83;2.10;;;;;;;22.60;55.57;100929.69;7312757;19;129075;-40
2022/01/25 02:51:20;;;;;;;30.08;2.88;;;;;;;22.60;54.64;100929.69;7311540;19;129549;-40
2022/01/25 02:53:45;;;;;;;26.73;2.53;;;;;;;22.67;54.91;100923.06;7310075;19;129196;-39
2022/01/25 02:56:14;;;;;;;25.10;2.58;;;;;;;22.57;54.61;100917.66;7309302;19;148518;-39
2022/01/25 02:58:39;;;;;;;30.77;3.13;;;;;;;22.50;55.13;100918.19;7312565;19;130422;-41
2022/01/25 03:01:05;;;;;;;24.17;2.42;;;;;;;22.43;55.90;100919.59;7310701;19;157719;-39
2022/01/25 03:03:30;;;;;;;27.50;2.53;;;;;;;22.40;54.80;100914.56;7310008;19;155391;-40
2022/01/25 03:05:55;;;;;;;22.53;2.27;;;;;;;22.36;55.62;100921.81;7309015;19;153962;-39
2022/01/25 03:08:20;;;;;;;29.65;2.97;;;;;;;22.35;54.90;100916.69;7311667;19;129312;-39
2022/01/25 03:10:47;;;;;;;14.13;1.90;;;;;;;22.26;55.55;100896.41;7309985;19;159263;-40
2022/01/25 03:13:20;;;;;;;35.83;3.40;;;;;;;22.40;54.65;100915.41;7310102;19;129124;-39
2022/01/25 03:18:26;;;;;;;26.48;2.58;;;;;;;22.52;54.09;100905.81;7311364;19;129274;-39
2022/01/25 03:21:00;;;;;;;26.65;2.70;;;;;;;22.48;54.09;100913.06;7310823;19;130907;-39
2022/01/25 03:23:28;;;;;;;23.23;2.25;;;;;;;22.51;54.14;100912.81;7312678;19;129441;-39
2022/01/25 03:25:53;;;;;;;30.83;3.05;;;;;;;22.53;54.18;100904.88;7309468;19;128830;-39
2022/01/25 03:28:19;;;;;;;31.48;2.90;;;;;;;22.51;53.98;100912.00;7309677;19;152964;-40
2022/01/25 03:30:45;;;;;;;31.30;3.27;;;;;;;22.47;54.44;100905.31;7311076;19;129232;-39
2022/01/25 03:33:12;;;;;;;29.33;2.83;;;;;;;22.44;54.98;100908.16;7307308;19;129068;-40
2022/01/25 03:35:37;;;;;;;20.63;2.00;;;;;;;22.43;54.59;100909.13;7309944;19;128948;-40
2022/01/25 03:38:03;;;;;;;27.73;2.40;;;;;;;22.42;54.99;100895.19;7310210;19;130305;-39
2022/01/25 03:40:28;;;;;;;31.27;3.35;;;;;;;22.39;55.45;100907.66;7310836;19;129544;-39
2022/01/25 03:42:55;;;;;;;22.20;1.98;;;;;;;22.37;55.58;100902.53;7311395;19;129371;-38
2022/01/25 03:45:22;;;;;;;21.05;2.10;;;;;;;22.30;54.76;100888.22;7307048;19;128991;-39
2022/01/25 03:49:47;;;;;;;33.63;3.10;;;;;;;22.37;55.87;100914.81;7310020;19;130706;-39
2022/01/25 03:50:45;;;;;;;28.55;2.95;;;;;;;22.38;55.25;100904.19;7308507;19;130738;-39
2022/01/25 03:53:12;;;;;;;12.77;1.63;;;;;;;22.35;56.23;100899.19;7309445;19;129018;-40
2022/01/25 03:55:38;;;;;;;30.05;3.20;;;;;;;22.40;54.75;100893.59;7312237;19;129103;-41
2022/01/25 03:58:03;;;;;;;27.90;2.67;;;;;;;22.47;54.21;100897.44;7318103;19;129548;-40
2022/01/25 04:00:28;;;;;;;38.10;3.63;;;;;;;;;;7317512;19;129365;-39
2022/01/25 04:03:00;;;;;;;21.43;2.10;;;;;;;22.81;53.30;100880.88;7318068;19;129002;-40
2022/01/25 04:05:36;;;;;;;36.30;3.28;;;;;;;23.17;52.03;100893.84;7315809;19;129099;-40
2022/01/25 04:08:02;;;;;;;19.85;1.92;;;;;;;23.35;52.23;100895.06;7317189;19;130706;-41
2022/01/25 04:10:28;;;;;;;21.60;2.35;;;;;;;23.52;51.24;100886.69;7317042;19;130181;-40
2022/01/25 04:12:53;;;;;;;25.75;2.45;;;;;;;23.69;51.33;100883.56;7316389;19;129078;-39
2022/01/25 04:15:18;;;;;;;28.93;2.87;;;;;;;23.81;50.47;100885.22;7316982;19;135614;-40
2022/01/25 04:17:49;;;;;;;28.63;2.75;;;;;;;23.91;49.86;100875.66;7315590;19;159660;-41
2022/01/25 04:20:20;;;;;;;25.63;2.42;;;;;;;24.02;49.73;100866.91;7316731;19;130413;-42
2022/01/25 04:25:29;;;;;;;27.10;2.33;;;;;;;24.17;49.38;100878.81;7315016;19;128948;-39
2022/01/25 04:27:55;;;;;;;25.42;2.38;;;;;;;24.24;49.65;100886.09;7317403;19;130217;-39
2022/01/25 04:30:21;;;;;;;44.55;4.22;;;;;;;24.18;49.26;100857.66;7316247;19;130439;-40
2022/01/25 04:32:54;;;;;;;30.77;3.03;;;;;;;24.34;49.59;100865.97;7315284;19;129515;-41
2022/01/25 04:35:28;;;;;;;26.10;2.50;;;;;;;24.40;49.38;100868.09;7316748;19;129001;-40
2022/01/25 04:49:14;;;;;;;13.23;1.42;;;;;;;24.48;48.39;100881.44;7316244;19;129450;-37
2022/01/25 04:51:49;;;;;;;34.38;3.17;;;;;;;24.42;49.40;100875.84;7314278;19;131091;-43
2022/01/25 04:54:25;;;;;;;30.63;2.75;;;;;;;24.41;49.02;100872.38;7311697;19;128749;-40
2022/01/25 05:02:09;;;;;;;21.52;1.98;;;;;;;24.13;49.75;100872.16;7314230;19;130284;-39
2022/01/25 05:04:41;;;;;;;56.05;5.45;;;;;;;24.07;49.45;100881.38;7300408;19;130684;-41
2022/01/25 05:07:26;;;;;;;38.75;3.63;;;;;;;23.92;50.17;100885.19;7311650;19;129667;-39
2022/01/25 05:09:53;;;;;;;31.13;3.05;;;;;;;23.84;50.17;100892.84;7314007;19;130904;-41
2022/01/25 05:12:28;;;;;;;38.55;3.55;;;;;;;23.78;50.21;100895.97;7309861;19;131919;-39
2022/01/25 05:15:06;;;;;;;48.65;4.65;;;;;;;23.65;51.16;100887.38;7312518;19;131250;-40
2022/01/25 05:17:41;;;;;;;30.95;2.65;;;;;;;23.54;51.12;100887.41;7314912;19;129404;-41
2022/01/25 05:22:52;;;;;;;29.05;2.83;;;;;;;23.39;51.78;100898.28;7312809;19;130395;-40
2022/01/25 05:25:17;;;;;;;28.40;2.70;;;;;;;23.32;52.08;100886.59;7313012;19;129956;-38
2022/01/25 05:27:42;;;;;;;32.77;3.27;;;;;;;23.28;51.91;100883.38;7315359;19;129412;-40
2022/01/25 05:30:08;;;;;;;27.85;2.65;;;;;;;23.21;52.69;100890.00;7311850;19;157683;-40
2022/01/25 05:32:34;;;;;;;27.17;2.60;;;;;;;23.13;52.23;100887.16;7313828;19;130793;-41
2022/01/25 05:35:00;;;;;;;29.60;2.90;;;;;;;23.12;52.89;100895.97;7313411;19;129040;-39
2022/01/25 05:37:25;;;;;;;28.48;2.50;;;;;;;23.11;53.31;100889.88;7314735;19;129645;-38
2022/01/25 05:39:52;;;;;;;28.27;2.73;;;;;;;23.09;53.03;100890.94;7313865;19;129281;-39
2022/01/25 05:47:17;;;;;;;31.95;3.08;;;;;;;23.07;53.41;100890.25;7313949;19;129158;-40
2022/01/25 05:49:43;;;;;;;29.42;2.83;;;;;;;23.05;53.55;100897.41;7314503;19;130827;-40
2022/01/25 05:52:09;;;;;;;11.02;1.27;;;;;;;23.01;53.09;100893.31;7313036;19;129131;-39
2022/01/25 05:54:35;;;;;;;47.58;4.30;;;;;;;23.03;53.22;100902.75;7314259;19;156304;-38
2022/01/25 05:57:01;;;;;;;26.40;2.45;;;;;;;22.99;54.07;100900.50;7310763;19;130711;-40
2022/01/25 05:59:26;;;;;;;26.98;2.45;;;;;;;22.98;53.41;100897.03;7312688;19;130356;-40
2022/01/25 06:01:52;;;;;;;42.63;3.83;;;;;;;22.96;53.56;100900.72;7309605;19;143793;-39
2022/01/25 06:04:18;;;;;;;40.45;3.85;;;;;;;22.91;54.72;100905.47;7305043;19;154499;-39
2022/01/25 06:06:44;;;;;;;37.13;3.30;;;;;;;22.88;53.91;100900.47;7310263;19;129256;-39
2022/01/25 06:09:09;;;;;;;27.23;2.63;;;;;;;22.85;53.73;100903.31;7311113;19;129376;-41
2022/01/25 06:11:34;;;;;;;28.02;3.03;;;;;;;22.90;54.24;100895.94;7313244;19;130731;-39
2022/01/25 06:14:01;;;;;;;20.17;2.03;;;;;;;22.86;54.79;100899.72;7308222;19;129220;-40
2022/01/25 06:16:29;;;;;;;24.45;2.13;;;;;;;22.88;55.14;100906.53;7311006;19;129879;-41
2022/01/25 06:18:56;;;;;;;34.15;3.17;;;;;;;22.86;54.74;100905.81;7311142;19;128992;-40
2022/01/25 06:21:22;;;;;;;25.13;2.25;;;;;;;22.74;54.00;100890.19;7311484;19;129229;-40
2022/01/25 06:23:47;;;;;;;50.83;4.87;;;;;;;22.78;54.61;100907.34;7311427;19;128926;-41
2022/01/25 06:26:12;;;;;;;28.40;2.63;;;;;;;22.82;54.09;100903.56;7310178;19;128833;-40
2022/01/25 06:28:38;;;;;;;20.27;2.27;;;;;;;22.77;53.69;100897.81;7308816;19;159176;-39
2022/01/25 06:31:03;;;;;;;22.73;2.15;;;;;;;22.79;54.34;100899.38;7310969;19;158410;-40
2022/01/25 06:33:28;;;;;;;32.65;3.00;;;;;;;22.73;54.32;100904.22;7311269;19;129402;-38
2022/01/25 06:35:54;;;;;;;11.32;1.58;;;;;;;22.78;54.25;100910.81;7310585;19;153087;-41
2022/01/25 06:38:20;;;;;;;20.53;2.13;;;;;;;22.73;54.24;100909.47;7312300;19;129938;-40
2022/01/25 06:40:45;;;;;;;30.95;3.13;;;;;;;22.68;54.03;100895.88;7310640;19;158686;-38
2022/01/25 06:43:10;;;;;;;36.47;3.33;;;;;;;22.75;54.18;100915.44;7309954;19;155381;-39
2022/01/25 06:45:41;;;;;;;40.05;3.75;;;;;;;22.75;53.64;100918.06;7308778;19;138493;-39
2022/01/25 06:48:06;;;;;;;26.08;2.38;;;;;;;22.77;54.59;100916.19;7312189;19;130227;-38
2022/01/25 06:50:32;;;;;;;30.05;3.30;;;;;;;22.77;53.58;100916.19;7311360;19;130662;-38
2022/01/25 06:52:57;;;;;;;27.47;2.57;;;;;;;22.82;53.22;100914.03;7308158;19;129572;-38
2022/01/25 06:55:23;;;;;;;50.00;4.07;;;;;;;22.91;53.96;100918.56;7308624;19;154012;-39
2022/01/25 06:57:49;;;;;;;28.73;2.83;;;;;;;23.02;52.34;100922.06;7310230;19;130196;-39
2022/01/25 07:00:18;;;;;;;21.43;2.40;;;;;;;23.17;52.62;100913.03;7310312;19;131437;-38
2022/01/25 07:02:43;;;;;;;33.15;3.10;;;;;;;23.21;52.40;100911.00;7309258;19;130670;-39
2022/01/25 07:05:09;;;;;;;118.50;10.40;;;;;;;23.37;52.21;100924.63;7306786;19;130404;-39
2022/01/25 07:07:34;;;;;;;23.75;2.28;;;;;;;23.48;51.96;100921.19;7309513;19;130204;-39
2022/01/25 07:10:00;;;;;;;44.20;4.17;;;;;;;23.57;51.47;100926.53;7310629;19;130965;-39
2022/01/25 07:12:26;;;;;;;38.50;3.47;;;;;;;23.74;51.21;100928.69;7309610;19;130207;-38
2022/01/25 07:14:51;;;;;;;43.40;4.00;;;;;;;23.78;50.94;100924.03;7308466;19;129148;-41
2022/01/25 07:17:17;;;;;;;33.77;3.33;;;;;;;23.89;50.57;100921.38;7309384;19;158553;-38
2022/01/25 07:19:42;;;;;;;34.40;3.33;;;;;;;23.97;50.75;100926.84;7310288;19;129519;-39
2022/01/25 07:22:08;;;;;;;32.53;3.27;;;;;;;23.98;50.68;100933.81;7307947;19;155309;-42
2022/01/25 07:24:33;;;;;;;34.87;3.13;;;;;;;23.94;50.34;100942.84;7307751;19;129593;-38
2022/01/25 07:26:58;;;;;;;41.72;3.78;;;;;;;23.87;50.58;100932.00;7302198;19;136867;-41
2022/01/25 07:29:24;;;;;;;40.40;4.15;;;;;;;23.85;50.44;100931.28;7306118;19;129322;-40
2022/01/25 07:31:49;;;;;;;44.08;4.07;;;;;;;23.73;51.24;100934.91;7305294;19;129797;-39
2022/01/25 07:34:15;;;;;;;46.95;4.25;;;;;;;23.62;51.67;100932.28;7301370;19;129379;-39
2022/01/25 07:36:42;;;;;;;30.13;3.27;;;;;;;23.54;51.45;100923.31;7303758;19;159634;-40
2022/01/25 07:39:08;;;;;;;19.73;2.08;;;;;;;23.49;52.00;100922.84;7311373;19;130382;-41
2022/01/25 07:41:33;;;;;;;43.47;3.90;;;;;;;23.41;52.02;100918.19;7307259;19;130264;-40
2022/01/25 07:43:59;;;;;;;23.17;2.67;;;;;;;23.34;52.63;100918.81;7308067;19;155514;-39
2022/01/25 07:46:25;;;;;;;25.37;2.67;;;;;;;23.27;52.11;100921.03;7303921;19;130225;-40
2022/01/25 07:48:51;;;;;;;26.23;2.60;;;;;;;23.14;52.80;100915.03;7305277;19;129270;-41
2022/01/25 07:51:16;;;;;;;42.10;3.73;;;;;;;23.15;53.03;100911.47;7307339;19;130421;-39
2022/01/25 07:53:43;;;;;;;32.20;3.10;;;;;;;23.10;53.19;100918.88;7306796;19;153953;-41
2022/01/25 07:56:09;;;;;;;24.63;2.60;;;;;;;23.07;53.29;100919.09;7308313;19;130330;-38
2022/01/25 07:58:35;;;;;;;31.02;3.10;;;;;;;23.02;53.54;100931.75;7307605;19;129635;-38
2022/01/25 08:01:00;;;;;;;21.65;2.15;;;;;;;23.01;52.96;100922.19;7308711;19;129340;-40
2022/01/25 08:03:26;;;;;;;25.38;2.33;;;;;;;22.97;53.70;100920.75;7307379;19;154889;-40
2022/01/25 08:05:51;;;;;;;66.63;6.45;;;;;;;22.92;53.73;100925.50;7292095;19;149741;-40
2022/01/25 08:08:17;;;;;;;23.30;2.43;;;;;;;22.93;54.03;100921.94;7307398;19;130796;-39
2022/01/25 08:10:43;;;;;;;20.95;2.33;;;;;;;22.87;53.78;100915.34;7310413;19;129048;-41
2022/01/25 08:13:08;;;;;;;19.15;2.25;;;;;;;22.86;54.00;100918.94;7308122;19;129091;-39
2022/01/25 08:15:33;;;;;;;19.83;2.22;;;;;;;22.87;54.13;100909.28;7309658;19;130478;-40
2022/01/25 08:17:58;;;;;;;23.52;2.17;;;;;;;22.89;54.25;100910.00;7309613;19;134476;-40
2022/01/25 08:20:24;;;;;;;18.77;2.00;;;;;;;22.78;54.00;100886.38;7310518;19;129381;-40
2022/01/25 08:22:50;;;;;;;22.92;2.67;;;;;;;22.91;53.39;100908.09;7307475;19;154533;-39
2022/01/25 08:25:16;;;;;;;48.70;4.75;;;;;;;22.90;53.72;100901.19;7309493;19;130210;-40
2022/01/25 08:27:41;;;;;;;25.13;2.70;;;;;;;22.94;53.52;100906.06;7310042;19;130439;-39
2022/01/25 08:30:08;;;;;;;24.73;2.65;;;;;;;23.01;53.38;100904.66;7306053;19;155592;-40
2022/01/25 08:32:33;;;;;;;18.60;2.08;;;;;;;23.04;52.81;100903.56;7310253;19;129071;-41
2022/01/25 08:34:58;;;;;;;22.23;2.08;;;;;;;23.12;52.96;100906.47;7308951;19;129701;-40
2022/01/25 08:37:24;;;;;;;35.33;3.53;;;;;;;23.14;53.05;100894.06;7307908;19;130823;-40
2022/01/25 08:39:51;;;;;;;28.40;3.03;;;;;;;23.18;53.02;100900.75;7309337;19;130056;-38
2022/01/25 08:42:17;;;;;;;21.92;2.40;;;;;;;23.25;52.68;100899.31;7314613;19;129492;-40
2022/01/25 08:44:43;;;;;;;29.47;3.30;;;;;;;23.26;52.18;100900.97;7316914;19;130321;-41
2022/01/25 08:47:09;;;;;;;25.23;2.50;;;;;;;23.21;52.66;100900.50;7315951;19;130407;-40
2022/01/25 08:49:34;;;;;;;24.50;2.40;;;;;;;23.17;52.55;100904.34;7317747;19;129082;-40
2022/01/25 08:52:00;;;;;;;18.83;2.03;;;;;;;23.12;52.49;100903.84;7315273;19;129045;-38
2022/01/25 08:54:26;;;;;;;10.38;1.52;;;;;;;23.10;53.15;100905.75;7315623;19;130153;-41
2022/01/25 08:56:53;;;;;;;21.33;2.33;;;;;;;23.04;53.33;100903.56;7312170;19;130807;-40
2022/01/25 08:59:18;;;;;;;;;;;;;;;22.98;53.25;100909.31;7316086;19;129212;-40
2022/01/25 09:01:43;;;;;;;21.13;2.53;;;;;;;22.97;53.68;100907.66;7314896;19;129650;-41
2022/01/25 09:04:08;;;;;;;43.47;4.28;;;;;;;22.90;53.91;100901.19;7315770;19;130161;-41
2022/01/25 09:06:34;;;;;;;18.67;1.98;;;;;;;22.90;53.92;100901.19;7312355;19;159084;-40
2022/01/25 09:09:02;;;;;;;20.25;2.30;;;;;;;22.88;53.37;100903.09;7314929;19;130035;-40
2022/01/25 09:11:28;;;;;;;18.30;2.28;;;;;;;22.87;53.82;100901.41;7315097;19;129165;-41
2022/01/25 09:13:53;;;;;;;32.65;3.33;;;;;;;22.85;54.22;100898.06;7312749;19;133130;-41
2022/01/25 09:16:19;;;;;;;27.15;2.92;;;;;;;22.82;53.58;100903.56;7311792;19;159044;-40
2022/01/25 09:18:45;;;;;;;29.43;2.83;;;;;;;22.81;54.13;100902.72;7315996;19;128943;-41
2022/01/25 09:21:10;;;;;;;21.15;2.40;;;;;;;22.80;54.28;100902.84;7314393;19;128791;-41
2022/01/25 09:23:35;;;;;;;19.48;2.03;;;;;;;22.79;54.49;100906.41;7314844;19;151710;-41
2022/01/25 09:26:02;;;;;;;26.23;2.50;;;;;;;22.78;54.71;100904.72;7310907;19;158973;-40
2022/01/25 09:28:27;;;;;;;14.18;2.08;;;;;;;22.65;54.74;100888.25;7313223;19;128857;-38
2022/01/25 09:30:53;;;;;;;35.47;3.65;;;;;;;22.71;54.84;100912.22;7313548;19;129494;-41
2022/01/25 09:33:18;;;;;;;19.20;2.20;;;;;;;22.70;54.61;100909.72;7314357;19;129109;-40
2022/01/25 09:35:44;;;;;;;27.35;2.90;;;;;;;22.70;54.34;100909.72;7311082;19;159219;-40
2022/01/25 09:38:10;;;;;;;18.42;2.17;;;;;;;22.71;54.34;100912.22;7315160;19;129328;-40
2022/01/25 09:40:36;;;;;;;6.25;1.25;;;;;;;22.75;54.24;100913.66;7314103;19;129137;-40
2022/01/25 09:43:02;;;;;;;23.30;2.47;;;;;;;22.77;54.46;100916.19;7314422;19;129185;-40
2022/01/25 09:45:28;;;;;;;11.23;1.45;;;;;;;22.84;54.12;100923.44;7313428;19;130500;-40
2022/01/25 09:47:54;;;;;;;32.92;3.38;;;;;;;22.81;53.60;100907.94;7315370;19;129556;-38
2022/01/25 09:50:20;;;;;;;27.67;2.90;;;;;;;22.93;53.45;100922.78;7312600;19;129128;-40
2022/01/25 09:52:47;;;;;;;26.10;2.65;;;;;;;23.00;53.13;100923.13;7311570;19;131588;-39
2022/01/25 09:55:25;;;;;;;49.35;4.93;;;;;;;22.99;53.19;100905.75;7311734;19;130680;-41
2022/01/25 09:57:50;;;;;;;24.15;2.45;;;;;;;23.16;52.54;100915.75;7315513;19;129875;-40
2022/01/25 10:00:20;;;;;;;32.17;3.25;;;;;;;23.24;52.21;100910.75;7312048;19;129102;-38
2022/01/25 10:05:35;;;;;;;65.32;6.28;;;;;;;23.31;52.60;100922.50;7301193;19;130051;-38
2022/01/25 10:08:08;;;;;;;18.67;2.00;;;;;;;23.31;51.99;100919.88;7306002;19;129799;-39
2022/01/25 10:10:36;;;;;;;12.27;1.55;;;;;;;23.25;52.54;100922.94;7311351;19;129261;-41
2022/01/25 10:13:10;;;;;;;17.33;2.05;;;;;;;23.18;52.78;100926.97;7314479;19;129644;-40
2022/01/25 10:15:36;;;;;;;18.50;2.15;;;;;;;23.13;53.22;100923.88;7312714;19;130399;-41
2022/01/25 10:18:04;;;;;;;15.45;1.85;;;;;;;23.04;52.67;100914.06;7313404;19;144882;-40
2022/01/25 10:20:35;;;;;;;29.98;2.97;;;;;;;23.06;52.86;100925.28;7314608;19;129321;-40
2022/01/25 10:23:09;;;;;;;20.05;2.22;;;;;;;23.04;52.94;100914.91;7313831;19;130420;-38
2022/01/25 10:25:46;;;;;;;17.42;1.73;;;;;;;22.99;53.52;100921.47;7312492;19;130486;-41
2022/01/25 10:28:14;;;;;;;20.77;2.38;;;;;;;22.92;53.05;100907.16;7312499;19;129547;-41
2022/01/25 10:30:46;;;;;;;25.85;2.70;;;;;;;22.93;53.83;100916.69;7312717;19;129149;-44
2022/01/25 10:33:30;;;;;;;21.58;2.38;;;;;;;22.88;53.40;100909.16;7311355;19;130784;-40
2022/01/25 10:35:58;;;;;;;22.35;2.38;;;;;;;22.87;53.57;100917.97;7311579;19;130449;-40
2022/01/25 10:38:30;;;;;;;27.77;2.90;;;;;;;22.83;53.91;100910.47;7311863;19;128955;-41
2022/01/25 10:41:08;;;;;;;32.15;3.28;;;;;;;22.78;54.11;100907.34;7313530;19;129843;-40
2022/01/25 10:43:35;;;;;;;25.98;2.55;;;;;;;22.78;54.55;100912.59;7310978;19;132386;-39
2022/01/25 10:46:22;;;;;;;16.10;1.77;;;;;;;22.65;54.77;100898.72;7311099;19;129240;-40
2022/01/25 10:48:55;;;;;;;26.07;2.67;;;;;;;22.73;54.86;100909.47;7312578;19;129201;-40
2022/01/25 10:51:45;;;;;;;25.48;2.55;;;;;;;22.75;53.99;100910.19;7312477;19;129474;-40
2022/01/25 10:54:20;;;;;;;19.05;2.10;;;;;;;22.76;54.31;100906.63;7309973;19;130277;-41
2022/01/25 10:56:47;;;;;;;27.85;2.85;;;;;;;22.80;54.22;100910.69;7309582;19;130780;-39
2022/01/25 10:59:16;;;;;;;31.40;3.05;;;;;;;22.85;54.10;100904.16;7311370;19;131846;-41
2022/01/25 11:01:47;;;;;;;28.48;2.92;;;;;;;22.88;54.16;100905.69;7311124;19;129117;-41
2022/01/25 11:04:15;;;;;;;25.90;2.88;;;;;;;22.94;53.92;100907.88;7311443;19;132181;-40
2022/01/25 11:06:41;;;;;;;22.40;2.42;;;;;;;22.99;53.03;100900.50;7309014;19;129820;-40
2022/01/25 11:09:10;;;;;;;18.92;2.17;;;;;;;23.07;53.28;100908.63;7310131;19;131822;-39
2022/01/25 11:11:40;;;;;;;28.45;2.83;;;;;;;23.11;53.33;100900.38;7313125;19;129045;-41
2022/01/25 11:16:52;;;;;;;38.55;3.88;;;;;;;23.26;52.60;100898.34;7307916;19;129016;-40
2022/01/25 11:19:17;;;;;;;;;;;;;;;23.25;52.77;100896.69;7309816;19;129476;-40
2022/01/25 11:21:43;;;;;;;33.67;3.22;;;;;;;23.29;52.07;100898.16;7311132;19;128848;-40
2022/01/25 11:24:14;;;;;;;26.63;2.63;;;;;;;23.26;52.29;100887.88;7311152;19;130395;-42
2022/01/25 11:26:43;;;;;;;23.52;2.70;;;;;;;23.22;52.46;100886.44;7307050;19;130579;-40
2022/01/25 11:29:09;;;;;;;23.27;2.58;;;;;;;23.18;53.00;100885.00;7311497;19;130132;-40
2022/01/25 11:31:38;;;;;;;25.88;2.72;;;;;;;23.12;53.48;100886.31;7310708;19;129547;-41
2022/01/25 11:34:06;;;;;;;21.95;2.20;;;;;;;23.10;52.97;100897.88;7308719;19;129151;-40
2022/01/25 11:36:40;;;;;;;23.00;2.15;;;;;;;23.05;53.37;100884.28;7307591;19;130661;-39
2022/01/25 11:39:09;;;;;;;20.73;2.00;;;;;;;23.02;53.68;100884.53;7310622;19;129277;-40
2022/01/25 11:41:34;;;;;;;12.90;1.35;;;;;;;23.00;53.44;100878.56;7308038;19;142572;-40
2022/01/25 11:44:16;;;;;;;17.20;1.73;;;;;;;22.92;53.46;100888.78;7310708;19;160271;-41
2022/01/25 11:46:47;;;;;;;27.67;2.80;;;;;;;22.91;53.70;100884.47;7307752;19;131180;-41
2022/01/25 11:49:17;;;;;;;24.80;2.45;;;;;;;22.88;53.51;100892.59;7311909;19;129179;-41
2022/01/25 11:51:43;;;;;;;24.73;2.58;;;;;;;22.88;53.92;100889.97;7308747;19;129085;-40
2022/01/25 11:54:09;;;;;;;14.05;1.95;;;;;;;22.78;53.72;100870.63;7308683;19;130885;-41
2022/01/25 11:56:36;;;;;;;26.98;2.58;;;;;;;22.73;53.97;100862.28;7307595;19;130446;-41
2022/01/25 11:59:01;;;;;;;20.13;2.05;;;;;;;22.76;53.86;100877.78;7311726;19;129602;-41
2022/01/25 12:01:28;;;;;;;14.55;1.58;;;;;;;22.75;54.55;100878.75;7308382;19;155061;-40
2022/01/25 12:04:01;;;;;;;;;;;;;;;22.71;55.04;100875.50;7308800;19;130165;-39
2022/01/25 12:06:44;;;;;;;48.13;4.65;;;;;;;22.67;54.63;100870.63;7292858;19;130800;-39
2022/01/25 12:09:21;;;;;;;18.00;1.98;;;;;;;22.71;54.62;100872.06;7309861;19;128834;-37
2022/01/25 12:12:06;;;;;;;25.58;2.42;;;;;;;22.67;54.45;100875.88;7310171;19;130153;-38
2022/01/25 12:14:37;;;;;;;17.20;1.85;;;;;;;22.72;54.66;100871.13;7309289;19;130485;-41
2022/01/25 12:17:02;;;;;;;32.78;3.22;;;;;;;22.75;54.55;100873.50;7310359;19;131189;-39
2022/01/25 12:19:30;;;;;;;17.53;1.77;;;;;;;22.79;53.67;100872.31;7314799;19;155187;-40
2022/01/25 12:21:58;;;;;;;28.63;2.88;;;;;;;22.83;54.27;100868.50;7314291;19;154261;-38
2022/01/25 12:24:34;;;;;;;26.17;2.58;;;;;;;22.91;53.98;100860.88;7317446;19;130167;-38
2022/01/25 12:27:26;;;;;;;21.38;2.50;;;;;;;22.97;53.11;100865.69;7311121;19;130463;-39
2022/01/25 12:30:01;;;;;;;27.45;2.80;;;;;;;23.05;53.27;100863.28;7315156;19;129419;-40
2022/01/25 12:32:31;;;;;;;35.83;3.58;;;;;;;23.10;53.48;100858.53;7316488;19;129563;-38
2022/01/25 12:35:07;;;;;;;18.42;1.85;;;;;;;23.10;52.42;100840.16;7315753;19;130736;-38
2022/01/25 12:37:45;;;;;;;19.02;1.85;;;;;;;23.26;52.36;100853.75;7317364;19;130433;-39
2022/01/25 12:40:25;;;;;;;36.85;3.67;;;;;;;23.25;52.31;100849.47;7316210;19;129028;-40
2022/01/25 12:43:07;;;;;;;26.80;2.50;;;;;;;23.21;52.49;100850.66;7317436;19;129365;-40
2022/01/25 12:45:43;;;;;;;18.77;1.80;;;;;;;23.11;53.16;100837.41;7313733;19;130271;-39
2022/01/25 12:48:10;;;;;;;25.85;2.42;;;;;;;23.15;52.97;100838.03;7315926;19;130493;-39
2022/01/25 12:50:42;;;;;;;23.38;2.25;;;;;;;23.09;52.88;100833.22;7315375;19;129300;-39
2022/01/25 12:53:09;;;;;;;21.60;2.10;;;;;;;22.99;53.59;100821.81;7315647;19;129006;-42
2022/01/25 12:55:38;;;;;;;14.73;1.50;;;;;;;23.02;53.50;100832.06;7313000;19;129303;-38
2022/01/25 12:58:05;;;;;;;17.38;1.90;;;;;;;22.97;53.14;100834.22;7317036;19;129212;-39
2022/01/25 13:00:42;;;;;;;17.15;1.80;;;;;;;22.93;53.48;100832.75;7314634;19;130206;-38